Time;durP1;ratioP1;P1;durP2;ratioP2;P2;SDS_P1;SDS_P2;PMS_P1;PMS_P2;Temp;Humidity;BMP_temperature;BMP_pressure;BME280_temperature;BME280_humidity;BME280_pressure;Samples;Min_cycle;Max_cycle;Signal;HPM_P1;HPM_P2
2023/04/06 00:00:08;;;;;;;;;;;;;;;2.28;100.00;102846.19;5053538;28;19916;-67
2023/04/06 00:02:34;;;;;;;;;;;;;;;2.35;100.00;102845.06;5051913;28;19953;-69
2023/04/06 00:05:00;;;;;;;;;;;;;;;2.38;100.00;102839.69;5053645;28;19925;-69
2023/04/06 00:07:25;;;;;;;;;;;;;;;2.38;100.00;102839.69;5053349;28;19913;-68
2023/04/06 00:09:51;;;;;;;;;;;;;;;2.36;100.00;102838.88;5053148;28;19913;-67
2023/04/06 00:12:16;;;;;;;;;;;;;;;2.30;100.00;102839.09;5052905;28;19913;-68
2023/04/06 00:14:42;;;;;;;;;;;;;;;2.22;100.00;102842.03;5054365;28;19920;-67
2023/04/06 00:17:07;;;;;;;;;;;;;;;2.14;100.00;102834.44;5053299;28;19932;-69
2023/04/06 00:19:33;;;;;;;;;;;;;;;2.12;100.00;102836.25;5052914;28;20376;-67
2023/04/06 00:21:59;;;;;;;;;;;;;;;2.12;100.00;102844.16;5052857;28;19913;-67
2023/04/06 00:24:24;;;;;;;;;;;;;;;2.09;100.00;102846.91;5053069;28;19913;-66
2023/04/06 00:26:50;;;;;;;;;;;;;;;2.03;100.00;102847.13;5052922;28;20380;-67
2023/04/06 00:29:15;;;;;;;;;;;;;;;2.03;100.00;102841.88;5053145;28;19912;-69
2023/04/06 00:31:40;;;;;;;;;;;;;;;2.04;100.00;102840.09;5054099;28;19912;-65
2023/04/06 00:34:06;;;;;;;;;;;;;;;2.04;100.00;102833.06;5053715;28;20345;-69
2023/04/06 00:36:31;;;;;;;;;;;;;;;2.05;100.00;102836.56;5051702;28;19939;-67
2023/04/06 00:38:57;;;;;;;;;;;;;;;2.04;100.00;102837.47;5052823;28;19940;-67
2023/04/06 00:41:22;;;;;;;;;;;;;;;2.01;100.00;102835.78;5052914;28;19959;-67
2023/04/06 00:43:47;;;;;;;;;;;;;;;1.99;100.00;102836.75;5052865;28;19913;-67
2023/04/06 00:46:13;;;;;;;;;;;;;;;1.96;100.00;102829.84;5052689;28;19913;-66
2023/04/06 00:48:39;;;;;;;;;;;;;;;1.92;100.00;102830.03;5052620;28;19912;-67
2023/04/06 00:51:04;;;;;;;;;;;;;;;1.88;100.00;102826.66;5052786;28;20379;-67
2023/04/06 00:53:30;;;;;;;;;;;;;;;1.86;100.00;102828.47;5053739;28;19913;-67
2023/04/06 00:55:55;;;;;;;;;;;;;;;1.87;100.00;102830.19;5054291;28;19958;-67
2023/04/06 00:58:20;;;;;;;;;;;;;;;1.93;100.00;102832.59;5053376;28;19913;-68
2023/04/06 01:00:46;;;;;;;;;;;;;;;1.98;100.00;102833.28;5053131;28;20427;-67
2023/04/06 01:03:12;;;;;;;;;;;;;;;1.97;100.00;102831.56;5052706;28;20003;-68
2023/04/06 01:05:40;;;;;;;;;;;;;;;1.92;100.00;102841.38;5052703;28;20323;-68
2023/04/06 01:08:06;;;;;;;;;;;;;;;1.88;100.00;102837.16;5052578;28;19936;-66
2023/04/06 01:10:31;;;;;;;;;;;;;;;1.85;100.00;102839.91;5050978;28;19919;-68
2023/04/06 01:12:56;;;;;;;;;;;;;;;1.88;100.00;102839.78;5052445;28;19919;-66
2023/04/06 01:15:22;;;;;;;;;;;;;;;1.92;100.00;102837.91;5052227;28;19913;-67
2023/04/06 01:17:47;;;;;;;;;;;;;;;1.92;100.00;102844.03;5052092;28;19982;-66
2023/04/06 01:20:14;;;;;;;;;;;;;;;1.92;100.00;102846.66;5052056;28;20009;-69
2023/04/06 01:22:39;;;;;;;;;;;;;;;1.96;100.00;102845.63;5052106;28;19917;-68
2023/04/06 01:25:05;;;;;;;;;;;;;;;2.05;100.00;102850.56;5052427;28;19913;-67
2023/04/06 01:27:30;;;;;;;;;;;;;;;2.05;100.00;102853.19;5051993;28;19913;-69
2023/04/06 01:29:56;;;;;;;;;;;;;;;2.01;100.00;102843.66;5052219;28;19947;-70
2023/04/06 01:32:21;;;;;;;;;;;;;;;1.99;100.00;102850.75;5052084;28;19919;-69
2023/04/06 01:34:46;;;;;;;;;;;;;;;1.96;100.00;102850.88;5052521;28;19912;-66
2023/04/06 01:37:12;;;;;;;;;;;;;;;1.82;100.00;102840.03;5052538;28;19913;-66
2023/04/06 01:39:37;;;;;;;;;;;;;;;1.88;100.00;102852.06;5054506;28;19919;-68
2023/04/06 01:42:02;;;;;;;;;;;;;;;1.86;100.00;102854.75;5056417;28;20007;-66
2023/04/06 01:44:30;;;;;;;;;;;;;;;1.89;100.00;102849.38;5056134;28;19960;-67
2023/04/06 01:46:56;;;;;;;;;;;;;;;1.93;100.00;102852.75;5055934;28;19920;-68
2023/04/06 01:49:21;;;;;;;;;;;;;;;1.95;100.00;102856.19;5056445;28;19913;-70
2023/04/06 01:51:47;;;;;;;;;;;;;;;1.99;100.00;102855.16;5056231;28;19913;-65
2023/04/06 01:54:12;;;;;;;;;;;;;;;2.03;100.00;102856.78;5055826;28;19912;-68
2023/04/06 01:56:37;;;;;;;;;;;;;;;2.07;100.00;102864.50;5054709;28;20007;-66
2023/04/06 01:59:03;;;;;;;;;;;;;;;2.12;100.00;102859.91;5055799;28;20768;-67
2023/04/06 02:01:28;;;;;;;;;;;;;;;2.08;100.00;102866.22;5056003;28;19968;-67
2023/04/06 02:03:53;;;;;;;;;;;;;;;2.05;100.00;102861.06;5055872;28;19916;-68
2023/04/06 02:06:19;;;;;;;;;;;;;;;2.00;100.00;102862.97;5055818;28;20735;-69
2023/04/06 02:08:44;;;;;;;;;;;;;;;1.97;100.00;102855.22;5055633;28;19920;-66
2023/04/06 02:11:10;;;;;;;;;;;;;;;2.01;100.00;102858.59;5055755;28;20344;-69
2023/04/06 02:13:35;;;;;;;;;;;;;;;2.00;100.00;102862.97;5054427;28;19912;-68
2023/04/06 02:16:02;;;;;;;;;;;;;;;2.02;100.00;102865.56;5055436;28;19975;-67
2023/04/06 02:18:28;;;;;;;;;;;;;;;2.04;100.00;102861.97;5055211;28;19920;-67
2023/04/06 02:20:53;;;;;;;;;;;;;;;2.05;100.00;102854.97;5055364;28;19917;-68
2023/04/06 02:23:18;;;;;;;;;;;;;;;2.07;100.00;102861.88;5055441;28;19913;-67
2023/04/06 02:25:44;;;;;;;;;;;;;;;2.13;100.00;102859.00;5056202;28;19917;-69
2023/04/06 02:28:09;;;;;;;;;;;;;;;2.12;100.00;102865.19;5055951;28;19923;-67
2023/04/06 02:30:34;;;;;;;;;;;;;;;2.09;100.00;102862.66;5055216;28;19913;-67
2023/04/06 02:33:00;;;;;;;;;;;;;;;2.02;100.00;102866.41;5055985;28;19919;-67
2023/04/06 02:35:27;;;;;;;;;;;;;;;1.98;100.00;102870.06;5055636;28;19921;-67
2023/04/06 02:37:52;;;;;;;;;;;;;;;1.99;100.00;102871.78;5055536;28;19919;-67
2023/04/06 02:40:18;;;;;;;;;;;;;;;2.03;100.00;102867.28;5054995;28;19952;-68
2023/04/06 02:42:43;;;;;;;;;;;;;;;2.09;100.00;102874.94;5054035;28;19943;-67
2023/04/06 02:45:09;;;;;;;;;;;;;;;2.15;100.00;102877.34;5055620;28;19919;-67
2023/04/06 02:47:34;;;;;;;;;;;;;;;2.16;100.00;102884.31;5055577;28;19963;-67
2023/04/06 02:50:00;;;;;;;;;;;;;;;2.19;100.00;102878.94;5054630;28;19924;-68
2023/04/06 02:52:25;;;;;;;;;;;;;;;2.17;100.00;102886.88;5055009;28;20000;-67
2023/04/06 02:54:51;;;;;;;;;;;;;;;2.07;100.00;102885.53;5056277;28;19952;-66
2023/04/06 02:57:16;;;;;;;;;;;;;;;2.03;100.00;102883.06;5042045;28;19919;-68
2023/04/06 02:59:42;;;;;;;;;;;;;;;2.01;100.00;102882.22;5054876;28;19935;-68
2023/04/06 03:02:08;;;;;;;;;;;;;;;2.00;100.00;102880.53;5054290;28;19920;-67
2023/04/06 03:04:34;;;;;;;;;;;;;;;2.03;100.00;102883.91;5054120;28;19924;-66
2023/04/06 03:06:59;;;;;;;;;;;;;;;2.10;100.00;102890.66;5054518;28;19928;-67
2023/04/06 03:09:25;;;;;;;;;;;;;;;2.08;100.00;102881.97;5055167;28;19917;-67
2023/04/06 03:11:50;;;;;;;;;;;;;;;2.05;100.00;102879.47;5052947;28;19913;-66
2023/04/06 03:14:17;;;;;;;;;;;;;;;1.99;100.00;102890.19;5055656;28;19919;-65
2023/04/06 03:16:42;;;;;;;;;;;;;;;2.01;100.00;102879.59;5054485;28;19935;-69
2023/04/06 03:19:08;;;;;;;;;;;;;;;2.01;100.00;102884.84;5055430;28;20372;-67
2023/04/06 03:21:34;;;;;;;;;;;;;;;1.96;100.00;102885.03;5054459;28;20474;-66
2023/04/06 03:23:59;;;;;;;;;;;;;;;1.99;100.00;102887.53;5054921;28;20045;-65
2023/04/06 03:26:25;;;;;;;;;;;;;;;2.01;100.00;102885.72;5055203;28;20276;-69
2023/04/06 03:28:50;;;;;;;;;;;;;;;2.03;100.00;102886.56;5055423;28;19913;-66
2023/04/06 03:31:16;;;;;;;;;;;;;;;2.04;100.00;102888.25;5056151;28;19913;-70
2023/04/06 03:33:41;;;;;;;;;;;;;;;1.97;100.00;102893.78;5054943;28;19913;-66
2023/04/06 03:36:06;;;;;;;;;;;;;;;1.91;100.00;102892.22;5054465;28;19956;-69
2023/04/06 03:38:32;;;;;;;;;;;;;;;1.93;100.00;102897.44;5054642;28;19913;-69
2023/04/06 03:40:57;;;;;;;;;;;;;;;2.00;100.00;102899.78;5054058;28;19920;-71
2023/04/06 03:43:22;;;;;;;;;;;;;;;2.05;100.00;102897.88;5054099;28;19923;-70
2023/04/06 03:45:48;;;;;;;;;;;;;;;2.05;100.00;102902.25;5053729;28;19913;-69
2023/04/06 03:48:13;;;;;;;;;;;;;;;2.05;100.00;102905.75;5053543;28;19939;-68
2023/04/06 03:50:38;;;;;;;;;;;;;;;1.99;100.00;102902.47;5053331;28;19927;-69
2023/04/06 03:53:04;;;;;;;;;;;;;;;1.97;100.00;102905.16;5053751;28;20015;-69
2023/04/06 03:55:30;;;;;;;;;;;;;;;1.95;100.00;102909.59;5052105;28;19990;-69
2023/04/06 03:57:55;;;;;;;;;;;;;;;1.92;100.00;102912.34;5053086;28;19913;-66
2023/04/06 04:00:20;;;;;;;;;;;;;;;1.89;100.00;102912.44;5053200;28;19919;-70
2023/04/06 04:02:46;;;;;;;;;;;;;;;1.85;100.00;102910.84;5053301;28;19963;-71
2023/04/06 04:05:11;;;;;;;;;;;;;;;1.78;100.00;102917.22;5053877;28;19916;-71
2023/04/06 04:07:36;;;;;;;;;;;;;;;1.80;100.00;102902.28;5053285;28;19974;-74
2023/04/06 04:10:02;;;;;;;;;;;;;;;1.81;100.00;102910.09;5053437;28;19913;-71
2023/04/06 04:12:28;;;;;;;;;;;;;;;1.89;100.00;102907.19;5053224;28;19913;-70
2023/04/06 04:14:54;;;;;;;;;;;;;;;1.95;100.00;102914.84;5053016;28;19919;-71
2023/04/06 04:17:19;;;;;;;;;;;;;;;1.89;100.00;102912.44;5051600;28;19923;-69
2023/04/06 04:19:45;;;;;;;;;;;;;;;1.90;100.00;102919.41;5052888;28;19913;-70
2023/04/06 04:22:10;;;;;;;;;;;;;;;1.95;100.00;102917.47;5053329;28;20044;-69
2023/04/06 04:24:35;;;;;;;;;;;;;;;1.96;100.00;102924.44;5051840;28;19913;-69
2023/04/06 04:27:01;;;;;;;;;;;;;;;1.93;100.00;102932.44;5052952;28;19913;-68
2023/04/06 04:29:26;;;;;;;;;;;;;;;1.95;100.00;102925.38;5051665;28;19912;-71
2023/04/06 04:31:52;;;;;;;;;;;;;;;2.03;100.00;102927.75;5052834;28;19919;-68
2023/04/06 04:34:19;;;;;;;;;;;;;;;2.04;100.00;102930.31;5052824;28;19913;-68
2023/04/06 04:36:45;;;;;;;;;;;;;;;2.02;100.00;102933.88;5059008;28;19919;-70
2023/04/06 04:39:10;;;;;;;;;;;;;;;2.01;100.00;102933.03;5063847;28;20283;-69
2023/04/06 04:41:35;;;;;;;;;;;;;;;2.05;100.00;102933.81;5063961;28;19912;-68
2023/04/06 04:44:01;;;;;;;;;;;;;;;2.04;100.00;102932.94;5072527;28;19959;-66
2023/04/06 04:46:26;;;;;;;;;;;;;;;2.00;100.00;102933.94;5072290;28;20007;-65
2023/04/06 04:48:51;;;;;;;;;;;;;;;1.96;100.00;102929.72;5072732;28;19912;-66
2023/04/06 04:51:17;;;;;;;;;;;;;;;1.88;100.00;102934.38;5072560;28;19912;-66
2023/04/06 04:53:42;;;;;;;;;;;;;;;1.88;100.00;102937.00;5072492;28;19934;-65
2023/04/06 04:56:07;;;;;;;;;;;;;;;1.86;100.00;102930.94;5072348;28;19912;-68
2023/04/06 04:58:33;;;;;;;;;;;;;;;1.93;100.00;102935.06;5072373;28;19913;-67
2023/04/06 05:00:59;;;;;;;;;;;;;;;1.93;100.00;102934.22;5072308;28;20287;-65
2023/04/06 05:03:25;;;;;;;;;;;;;;;1.90;100.00;102936.97;5072132;28;19916;-66
2023/04/06 05:05:51;;;;;;;;;;;;;;;1.95;100.00;102937.66;5072300;28;20314;-67
2023/04/06 05:08:16;;;;;;;;;;;;;;;1.92;100.00;102941.25;5072123;28;20010;-68
2023/04/06 05:10:41;;;;;;;;;;;;;;;1.85;100.00;102948.50;5072961;28;19912;-68
2023/04/06 05:13:07;;;;;;;;;;;;;;;1.79;100.00;102938.19;5072687;28;20288;-69
2023/04/06 05:15:34;;;;;;;;;;;;;;;1.85;100.00;102942.38;5072282;28;19919;-67
2023/04/06 05:18:00;;;;;;;;;;;;;;;1.95;100.00;102949.00;5054065;28;20455;-67
2023/04/06 05:20:25;;;;;;;;;;;;;;;2.01;100.00;102942.69;5072250;28;19947;-71
2023/04/06 05:22:51;;;;;;;;;;;;;;;2.10;100.00;102943.22;5054409;28;19985;-68
2023/04/06 05:25:16;;;;;;;;;;;;;;;2.13;100.00;102948.38;5072699;28;19920;-69
2023/04/06 05:27:41;;;;;;;;;;;;;;;2.11;100.00;102947.56;5072946;28;19913;-69
2023/04/06 05:30:07;;;;;;;;;;;;;;;2.14;100.00;102950.09;5072061;28;19912;-68
2023/04/06 05:32:32;;;;;;;;;;;;;;;2.12;100.00;102951.06;5071852;28;20095;-68
2023/04/06 05:34:58;;;;;;;;;;;;;;;2.14;100.00;102951.88;5072257;28;19937;-69
2023/04/06 05:37:23;;;;;;;;;;;;;;;2.11;100.00;102951.97;5072182;28;20271;-67
2023/04/06 05:39:48;;;;;;;;;;;;;;;2.14;100.00;102954.50;5072148;28;19913;-69
2023/04/06 05:42:15;;;;;;;;;;;;;;;2.10;100.00;102952.88;5072624;28;19992;-69
2023/04/06 05:44:40;;;;;;;;;;;;;;;2.03;100.00;102949.63;5073553;28;19958;-66
2023/04/06 05:47:05;;;;;;;;;;;;;;;2.01;100.00;102948.78;5055562;28;19913;-68
2023/04/06 05:49:31;;;;;;;;;;;;;;;1.99;100.00;102950.63;5055522;28;19998;-66
2023/04/06 05:51:56;;;;;;;;;;;;;;;1.95;100.00;102954.28;5073845;28;19960;-68
2023/04/06 05:54:21;;;;;;;;;;;;;;;1.96;100.00;102950.72;5073298;28;19917;-66
2023/04/06 05:56:47;;;;;;;;;;;;;;;1.96;100.00;102950.72;5073490;28;19913;-67
2023/04/06 05:59:12;;;;;;;;;;;;;;;2.01;100.00;102946.16;5070747;28;20011;-69
2023/04/06 06:01:38;;;;;;;;;;;;;;;2.12;100.00;102949.28;5073666;28;20289;-69
2023/04/06 06:04:04;;;;;;;;;;;;;;;2.24;100.00;102955.88;5073764;28;19938;-66
2023/04/06 06:06:30;;;;;;;;;;;;;;;2.17;100.00;102947.34;5074292;28;19924;-68
2023/04/06 06:08:58;;;;;;;;;;;;;;;2.16;100.00;102950.88;5075016;28;19919;-68
2023/04/06 06:11:23;;;;;;;;;;;;;;;2.24;100.00;102957.63;5074530;28;19978;-69
2023/04/06 06:13:48;;;;;;;;;;;;;;;2.23;100.00;102958.56;5073098;28;19944;-67
2023/04/06 06:16:14;;;;;;;;;;;;;;;2.15;100.00;102958.84;5073264;28;19927;-68
2023/04/06 06:18:39;;;;;;;;;;;;;;;2.12;100.00;102967.69;5073386;28;19916;-69
2023/04/06 06:21:06;;;;;;;;;;;;;;;2.11;100.00;102963.34;5073472;28;19965;-66
2023/04/06 06:23:34;;;;;;;;;;;;;;;2.04;100.00;102961.00;5073337;28;20416;-67
2023/04/06 06:26:00;;;;;;;;;;;;;;;2.09;100.00;102965.19;5076489;28;19923;-67
2023/04/06 06:28:26;;;;;;;;;;;;;;;2.14;100.00;102970.25;5077240;28;19912;-67
2023/04/06 06:30:51;;;;;;;;;;;;;;;2.15;100.00;102966.72;5075521;28;19973;-67
2023/04/06 06:33:16;;;;;;;;;;;;;;;2.23;100.00;102974.31;5075381;28;19913;-68
2023/04/06 06:35:42;;;;;;;;;;;;;;;2.21;100.00;102971.75;5075051;28;19965;-68
2023/04/06 06:38:07;;;;;;;;;;;;;;;2.25;100.00;102964.63;5075846;28;19935;-67
2023/04/06 06:40:33;;;;;;;;;;;;;;;2.26;100.00;102974.22;5077017;28;19919;-68
2023/04/06 06:42:58;;;;;;;;;;;;;;;2.15;100.00;102972.84;5058475;28;19913;-67
2023/04/06 06:45:25;;;;;;;;;;;;;;;2.22;100.00;102969.97;5058760;28;19912;-68
2023/04/06 06:47:50;;;;;;;;;;;;;;;2.30;100.00;102970.56;5077297;28;19917;-70
2023/04/06 06:50:15;;;;;;;;;;;;;;;2.49;100.00;102969.84;5076582;28;19912;-68
2023/04/06 06:52:41;;;;;;;;;;;;;;;2.53;100.00;102967.94;5075334;28;19913;-67
2023/04/06 06:55:07;;;;;;;;;;;;;;;2.63;100.00;102974.59;5074931;28;19912;-67
2023/04/06 06:57:33;;;;;;;;;;;;;;;2.70;100.00;102975.22;5074681;28;20035;-68
2023/04/06 06:59:59;;;;;;;;;;;;;;;2.76;100.00;102978.47;5074929;28;19912;-70
2023/04/06 07:02:25;;;;;;;;;;;;;;;2.72;100.00;102982.16;5063271;28;20431;-71
2023/04/06 07:04:50;;;;;;;;;;;;;;;2.82;100.00;102979.16;5081864;28;19923;-69
2023/04/06 07:07:15;;;;;;;;;;;;;;;2.96;100.00;102968.97;5077993;28;20283;-72
2023/04/06 07:09:41;;;;;;;;;;;;;;;3.04;100.00;102974.78;5079627;28;19912;-70
2023/04/06 07:12:06;;;;;;;;;;;;;;;3.13;100.00;102984.09;5075785;28;19913;-72
2023/04/06 07:14:32;;;;;;;;;;;;;;;3.11;100.00;102979.75;5076419;28;19919;-71
2023/04/06 07:16:57;;;;;;;;;;;;;;;3.10;100.00;102980.66;5076537;28;19930;-72
2023/04/06 07:19:22;;;;;;;;;;;;;;;3.09;100.00;102975.47;5077109;28;20267;-73
2023/04/06 07:21:49;;;;;;;;;;;;;;;3.02;100.00;102977.47;5077283;28;19935;-72
2023/04/06 07:24:15;;;;;;;;;;;;;;;2.86;100.00;102983.38;5076308;28;20311;-72
2023/04/06 07:26:41;;;;;;;;;;;;;;;2.93;100.00;102971.72;5075367;28;19927;-71
2023/04/06 07:29:07;;;;;;;;;;;;;;;2.92;100.00;102980.53;5065650;28;19917;-72
2023/04/06 07:31:32;;;;;;;;;;;;;;;3.03;100.00;102986.22;5067404;28;19917;-72
2023/04/06 07:33:57;;;;;;;;;;;;;;;3.19;100.00;102984.72;5053307;28;19925;-71
2023/04/06 07:36:23;;;;;;;;;;;;;;;3.22;100.00;102984.59;5068351;28;19916;-73
2023/04/06 07:38:48;;;;;;;;;;;;;;;3.17;100.00;102981.25;5083265;28;20011;-71
2023/04/06 07:41:14;;;;;;;;;;;;;;;3.34;100.00;102986.72;5050808;28;19916;-73
2023/04/06 07:43:40;;;;;;;;;;;;;;;3.43;100.00;102994.25;5066010;28;20014;-72
2023/04/06 07:46:05;;;;;;;;;;;;;;;3.46;100.00;102993.28;5067053;28;19922;-73
2023/04/06 07:48:31;;;;;;;;;;;;;;;3.46;100.00;102997.69;5094003;28;20261;-74
2023/04/06 07:51:03;;;;;;;;;;;;;;;3.43;100.00;102996.88;5093046;28;21438;-72
2023/04/06 07:53:29;;;;;;;;;;;;;;;3.54;100.00;103000.88;5093825;28;20007;-75
2023/04/06 07:55:55;;;;;;;;;;;;;;;3.74;100.00;102998.25;5093749;28;20010;-74
2023/04/06 07:58:20;;;;;;;;;;;;;;;3.79;100.00;102998.97;5093360;28;19928;-73
2023/04/06 08:00:46;;;;;;;;;;;;;;;3.82;100.00;102998.81;5093769;28;19919;-74
2023/04/06 08:03:20;;;;;;;;;;;;;;;3.85;100.00;102993.41;5093759;28;19916;-72
2023/04/06 08:05:48;;;;;;;;;;;;;;;3.75;100.00;103002.63;5094611;28;19938;-74
2023/04/06 08:08:13;;;;;;;;;;;;;;;3.77;100.00;102998.16;5093666;28;19938;-73
2023/04/06 08:10:38;;;;;;;;;;;;;;;3.66;100.00;103000.38;5093458;28;20361;-71
2023/04/06 08:13:04;;;;;;;;;;;;;;;3.49;100.00;103002.84;5093651;28;19912;-72
2023/04/06 08:15:29;;;;;;;;;;;;;;;3.49;100.00;103003.72;5093734;28;20007;-69
2023/04/06 08:17:57;;;;;;;;;;;;;;;3.42;100.00;103002.22;5075981;28;19973;-73
2023/04/06 08:20:22;;;;;;;;;;;;;;;3.46;100.00;103003.81;5093437;28;20351;-73
2023/04/06 08:22:47;;;;;;;;;;;;;;;3.51;100.00;103001.88;5093276;28;19912;-70
2023/04/06 08:25:13;;;;;;;;;;;;;;;3.59;100.00;103009.44;5093344;28;19916;-72
2023/04/06 08:27:39;;;;;;;;;;;;;;;3.60;100.00;103006.75;5093752;28;20352;-71
2023/04/06 08:30:04;;;;;;;;;;;;;;;3.61;100.00;103007.59;5094603;28;19919;-72
2023/04/06 08:32:30;;;;;;;;;;;;;;;3.68;100.00;103014.34;5097154;28;20372;-71
2023/04/06 08:34:55;;;;;;;;;;;;;;;3.83;100.00;103016.34;5094617;28;20368;-71
2023/04/06 08:37:21;;;;;;;;;;;;;;;3.86;100.00;103021.50;5099952;28;19987;-72
2023/04/06 08:39:47;;;;;;;;;;;;;;;3.85;100.00;103018.91;5079565;28;19934;-69
2023/04/06 08:42:18;;;;;;;;;;;;;;;3.76;100.00;103020.16;5082519;28;20353;-71
2023/04/06 08:44:45;;;;;;;;;;;;;;;3.78;100.00;103022.75;5022233;28;19919;-71
2023/04/06 08:47:11;;;;;;;;;;;;;;;3.85;100.00;103017.13;5053852;28;20015;-71
2023/04/06 08:49:37;;;;;;;;;;;;;;;3.91;100.00;103014.25;5052493;28;19920;-71
2023/04/06 08:52:04;;;;;;;;;;;;;;;3.97;100.00;103019.25;5052678;28;19916;-71
2023/04/06 08:54:30;;;;;;;;;;;;;;;4.04;100.00;103018.06;5053028;28;19952;-71
2023/04/06 08:56:56;;;;;;;;;;;;;;;4.11;99.63;103023.94;5052730;28;19913;-71
2023/04/06 08:59:23;;;;;;;;;;;;;;;4.33;100.00;103023.84;5035026;28;19913;-73
2023/04/06 09:01:50;;;;;;;;;;;;;;;4.45;99.45;103023.34;5052878;28;19917;-72
2023/04/06 09:04:16;;;;;;;;;;;;;;;4.52;99.43;103021.28;5052644;28;19962;-71
2023/04/06 09:06:41;;;;;;;;;;;;;;;4.64;99.58;103029.53;5061349;28;19916;-73
2023/04/06 09:09:06;;;;;;;;;;;;;;;4.74;97.51;103034.38;5073125;28;19974;-74
2023/04/06 09:11:42;;;;;;;;;;;;;;;4.63;97.34;103037.50;5073986;28;19917;-75
2023/04/06 09:14:07;;;;;;;;;;;;;;;4.47;98.06;103039.09;5037893;28;19912;-71
2023/04/06 09:16:38;;;;;;;;;;;;;;;4.30;98.89;103037.19;5054177;28;19912;-70
2023/04/06 09:19:04;;;;;;;;;;;;;;;4.15;100.00;103033.44;5071900;28;19913;-71
2023/04/06 09:21:30;;;;;;;;;;;;;;;4.23;99.83;103027.84;5071126;28;19920;-71
2023/04/06 09:24:00;;;;;;;;;;;;;;;4.29;99.31;103027.56;5072173;28;20921;-75
2023/04/06 09:26:26;;;;;;;;;;;;;;;4.36;99.16;103029.03;5038076;28;19945;-72
2023/04/06 09:28:55;;;;;;;;;;;;;;;4.44;99.54;103033.97;5053934;28;20375;-72
2023/04/06 09:31:32;;;;;;;;;;;;;;;4.63;99.17;103035.72;5071943;28;20009;-72
2023/04/06 09:33:58;;;;;;;;;;;;;;;4.70;98.43;103035.44;5037945;28;19913;-70
2023/04/06 09:36:34;;;;;;;;;;;;;;;4.81;98.24;103027.88;5073833;28;19919;-73
2023/04/06 09:39:03;;;;;;;;;;;;;;;5.09;99.05;103033.59;5071927;28;19912;-72
2023/04/06 09:41:30;;;;;;;;;;;;;;;5.20;95.26;103033.09;5072923;28;20365;-72
2023/04/06 09:44:06;;;;;;;;;;;;;;;5.05;95.44;103028.53;5074344;28;19912;-70
2023/04/06 09:46:33;;;;;;;;;;;;;;;4.86;95.89;103023.25;5071918;28;19948;-70
2023/04/06 09:48:59;;;;;;;;;;;;;;;4.77;96.76;103023.66;5037445;28;19962;-71
2023/04/06 09:51:26;;;;;;;;;;;;;;;4.85;97.00;103026.81;5054224;28;19912;-72
2023/04/06 09:53:53;;;;;;;;;;;;;;;4.79;96.47;103021.81;5072175;28;20010;-71
2023/04/06 09:56:23;;;;;;;;;;;;;;;4.70;97.59;103035.44;5053893;28;19912;-71
2023/04/06 09:58:50;;;;;;;;;;;;;;;4.65;96.99;103028.59;5071996;28;19912;-71
2023/04/06 10:01:16;;;;;;;;;;;;;;;4.87;97.08;103022.31;5075872;28;19982;-69
2023/04/06 10:03:42;;;;;;;;;;;;;;;4.99;96.52;103027.03;5076976;28;19924;-73
2023/04/06 10:06:11;;;;;;;;;;;;;;;5.01;96.61;103027.84;5080460;28;19917;-71
2023/04/06 10:08:40;;;;;;;;;;;;;;;5.16;95.50;103029.75;5079526;28;19919;-73
2023/04/06 10:11:06;;;;;;;;;;;;;;;5.21;94.41;103014.56;5077743;28;19921;-71
2023/04/06 10:13:31;;;;;;;;;;;;;;;5.16;94.25;103019.16;5076049;28;20015;-74
2023/04/06 10:15:57;;;;;;;;;;;;;;;5.32;94.75;103026.38;5057980;28;19920;-71
2023/04/06 10:18:22;;;;;;;;;;;;;;;5.50;93.64;103023.72;5075505;28;19912;-73
2023/04/06 10:21:17;;;;;;;;;;;;;;;5.78;94.07;103025.88;5075378;28;19913;-72
2023/04/06 10:23:53;;;;;;;;;;;;;;;5.90;91.32;103027.91;5047563;28;19917;-72
2023/04/06 10:26:20;;;;;;;;;;;;;;;6.17;92.69;103020.38;5075478;28;19916;-73
2023/04/06 10:28:46;;;;;;;;;;;;;;;6.48;92.54;103019.63;5057397;28;20012;-72
2023/04/06 10:31:12;;;;;;;;;;;;;;;6.51;88.66;103022.09;5074936;28;20371;-71
2023/04/06 10:33:37;;;;;;;;;;;;;;;6.30;89.39;103027.66;5057084;28;20483;-71
2023/04/06 10:36:09;;;;;;;;;;;;;;;6.13;88.90;103025.91;5074903;28;19912;-71
2023/04/06 10:38:36;;;;;;;;;;;;;;;5.94;91.03;103025.97;5056740;28;19916;-71
2023/04/06 10:41:06;;;;;;;;;;;;;;;5.73;92.16;103021.72;5074840;28;20429;-71
2023/04/06 10:43:36;;;;;;;;;;;;;;;5.60;92.67;103019.69;5041461;28;20368;-72
2023/04/06 10:46:01;;;;;;;;;;;;;;;5.55;92.75;103029.63;5074512;28;19912;-71
2023/04/06 10:48:40;;;;;;;;;;;;;;;5.43;92.92;103018.78;5057329;28;19958;-73
2023/04/06 10:51:16;;;;;;;;;;;;;;;5.47;93.75;103028.28;5074749;28;19912;-71
2023/04/06 10:53:43;;;;;;;;;;;;;;;5.44;94.11;103020.50;5075147;28;20256;-72
2023/04/06 10:56:11;;;;;;;;;;;;;;;5.55;93.45;103028.78;5074763;28;19954;-72
2023/04/06 10:58:36;;;;;;;;;;;;;;;5.74;93.18;103024.28;5056512;28;19912;-70
2023/04/06 11:01:02;;;;;;;;;;;;;;;5.74;92.49;103018.13;5074716;28;19958;-73
2023/04/06 11:03:29;;;;;;;;;;;;;;;5.79;92.74;103016.16;5075112;28;19917;-71
2023/04/06 11:05:54;;;;;;;;;;;;;;;5.90;93.06;103009.41;5058514;28;19963;-72
2023/04/06 11:08:32;;;;;;;;;;;;;;;6.01;92.63;103010.63;5078180;28;19923;-72
2023/04/06 11:11:05;;;;;;;;;;;;;;;5.97;92.10;103009.09;5080603;28;19912;-72
2023/04/06 11:13:41;;;;;;;;;;;;;;;6.02;92.75;103007.06;5081060;28;19916;-72
2023/04/06 11:16:06;;;;;;;;;;;;;;;6.14;92.38;103006.44;5059142;28;19920;-72
2023/04/06 11:18:32;;;;;;;;;;;;;;;6.17;91.46;103001.00;5075123;28;19913;-72
2023/04/06 11:20:57;;;;;;;;;;;;;;;6.05;90.88;103002.47;5056628;28;20279;-71
2023/04/06 11:23:24;;;;;;;;;;;;;;;6.10;91.71;103002.25;5074441;28;19928;-71
2023/04/06 11:25:50;;;;;;;;;;;;;;;6.25;91.63;102993.50;5075679;28;20011;-70
2023/04/06 11:28:15;;;;;;;;;;;;;;;6.37;91.14;102990.22;5081132;28;20318;-73
2023/04/06 11:30:41;;;;;;;;;;;;;;;6.48;89.82;102994.94;5078249;28;19912;-70
2023/04/06 11:33:06;;;;;;;;;;;;;;;6.56;89.43;102982.16;5056355;28;19959;-70
2023/04/06 11:35:32;;;;;;;;;;;;;;;6.66;88.93;102986.03;5073755;28;19916;-70
2023/04/06 11:37:58;;;;;;;;;;;;;;;6.68;88.04;102985.94;5074017;28;19912;-71
2023/04/06 11:40:24;;;;;;;;;;;;;;;6.71;88.04;103001.66;5056220;28;19966;-72
2023/04/06 11:42:54;;;;;;;;;;;;;;;6.80;88.85;102986.13;5074024;28;19920;-71
2023/04/06 11:45:19;;;;;;;;;;;;;;;6.77;88.72;102988.94;5055874;28;19948;-71
2023/04/06 11:47:44;;;;;;;;;;;;;;;6.81;88.38;102994.91;5073814;28;19947;-71
2023/04/06 11:50:11;;;;;;;;;;;;;;;6.82;87.78;102980.72;5074229;28;19923;-71
2023/04/06 11:52:37;;;;;;;;;;;;;;;6.82;87.78;102983.38;5073868;28;19912;-70
2023/04/06 11:55:17;;;;;;;;;;;;;;;6.81;88.34;102986.97;5056025;28;19983;-71
2023/04/06 11:57:45;;;;;;;;;;;;;;;6.89;87.91;102990.03;5056193;28;19912;-70
2023/04/06 12:00:11;;;;;;;;;;;;;;;6.80;86.44;102990.56;5055183;28;19965;-71
2023/04/06 12:02:39;;;;;;;;;;;;;;;6.74;87.03;102986.47;5073318;28;19952;-70
2023/04/06 12:05:08;;;;;;;;;;;;;;;6.79;86.66;102983.56;5073386;28;19977;-72
2023/04/06 12:07:34;;;;;;;;;;;;;;;6.78;85.98;102976.53;5076056;28;19916;-72
2023/04/06 12:10:00;;;;;;;;;;;;;;;6.90;86.11;102991.75;5076808;28;19919;-71
2023/04/06 12:12:26;;;;;;;;;;;;;;;6.93;85.51;102996.03;5074895;28;19912;-72
2023/04/06 12:14:51;;;;;;;;;;;;;;;6.89;85.00;102992.69;5076231;28;20015;-71
2023/04/06 12:17:17;;;;;;;;;;;;;;;6.89;84.73;102992.69;5075829;28;20383;-71
2023/04/06 12:19:43;;;;;;;;;;;;;;;6.87;84.59;102986.63;5055465;28;20480;-72
2023/04/06 12:22:08;;;;;;;;;;;;;;;6.96;85.02;102983.50;5055123;28;19944;-70
2023/04/06 12:24:33;;;;;;;;;;;;;;;7.07;83.91;102978.44;5055136;28;20468;-71
2023/04/06 12:26:59;;;;;;;;;;;;;;;7.14;83.99;102971.84;5073210;28;20015;-75
2023/04/06 12:29:24;;;;;;;;;;;;;;;7.21;83.82;102968.84;5055519;28;19963;-71
2023/04/06 12:31:50;;;;;;;;;;;;;;;7.24;81.67;102974.84;5055487;28;19924;-72
2023/04/06 12:34:19;;;;;;;;;;;;;;;7.18;81.28;102979.63;5073706;28;19912;-72